Terminal Aerodrome Forecast
Issued by NWS

Home | Current Version | Previous Version | Text Only | Print | Product List | Glossary On
Versions: 1 2 3 4 5 6 7 8 9 10 11 12 13 14 15 16 17 18 19 20 21 22 23 24 25
000
FTPA31 PHFO 211900 AAA
TAFITO
TAF AMD
PHTO 211904Z 2119/2218 08009KT P6SM VCSH SCT025 BKN050
      TEMPO 2119/2123 5SM -RA BKN025
     FM220600 25006KT P6SM VCSH SCT025 BKN050=

USA.gov is the U.S. government's official web portal to all federal, state and local government web resources and services.